Time,TemperatureF,DewpointF,PressureIn,WindDirection,WindDirectionDegrees,WindSpeedMPH,WindSpeedGustMPH,Humidity,HourlyPrecipIn,Conditions,Clouds,dailyrainin,SoftwareType,DateUTC
2013-01-17 00:02:00,35.0,7.0,-100.00,ENE,65,1.0,2.0,31,-99.99,,,-99.99,,2013-01-17 00:02:00,
2013-01-17 00:11:00,35.0,7.0,-100.00,ESE,110,1.0,3.0,31,-99.99,,,-99.99,,2013-01-17 00:11:00,
2013-01-17 00:22:00,31.0,6.0,-100.00,SE,135,3.0,5.0,33,-99.99,,,-99.99,,2013-01-17 00:22:00,
2013-01-17 00:32:00,31.0,6.0,-100.00,ESE,120,2.0,5.0,34,-99.99,,,-99.99,,2013-01-17 00:32:00,
2013-01-17 00:42:00,30.0,6.0,-100.00,SSE,155,2.0,4.0,34,-99.99,,,-99.99,,2013-01-17 00:42:00,
2013-01-17 00:52:00,31.0,6.0,-100.00,NE,45,1.0,6.0,34,-99.99,,,-99.99,,2013-01-17 00:52:00,
2013-01-17 01:02:00,30.0,6.0,-100.00,North,350,0.0,2.0,34,-99.99,,,-99.99,,2013-01-17 01:02:00,
2013-01-17 01:11:00,30.0,5.0,-100.00,SE,145,1.0,3.0,34,-99.99,,,-99.99,,2013-01-17 01:11:00,
2013-01-17 01:22:00,25.0,3.0,-100.00,South,185,4.0,10.0,37,-99.99,,,-99.99,,2013-01-17 01:22:00,
2013-01-17 01:32:00,25.0,6.0,-100.00,SSW,205,4.0,6.0,43,-99.99,,,-99.99,,2013-01-17 01:32:00,
2013-01-17 01:42:00,27.0,8.0,-100.00,South,180,7.0,9.0,43,-99.99,,,-99.99,,2013-01-17 01:42:00,
2013-01-17 01:52:00,27.0,8.0,-100.00,SSW,210,3.0,6.0,43,-99.99,,,-99.99,,2013-01-17 01:52:00,
2013-01-17 02:02:00,29.0,8.0,-100.00,North,0,3.0,6.0,39,-99.99,,,-99.99,,2013-01-17 02:02:00,
2013-01-17 02:11:00,28.0,7.0,-100.00,SE,135,4.0,6.0,41,-99.99,,,-99.99,,2013-01-17 02:11:00,
2013-01-17 02:22:00,28.0,7.0,-100.00,SSW,210,2.0,6.0,40,-99.99,,,-99.99,,2013-01-17 02:22:00,
2013-01-17 02:32:00,27.0,5.0,-100.00,WSW,245,6.0,6.0,39,-99.99,,,-99.99,,2013-01-17 02:32:00,
2013-01-17 02:42:00,27.0,5.0,-100.00,WSW,245,6.0,6.0,39,-99.99,,,-99.99,,2013-01-17 02:42:00,
2013-01-17 02:52:00,27.0,5.0,-100.00,WSW,245,6.0,6.0,39,-99.99,,,-99.99,,2013-01-17 02:52:00,
2013-01-17 03:02:00,26.0,5.0,-100.00,SSE,160,4.0,5.0,39,-99.99,,,-99.99,,2013-01-17 03:02:00,
2013-01-17 03:11:00,26.0,5.0,-100.00,South,180,7.0,7.0,39,-99.99,,,-99.99,,2013-01-17 03:11:00,
2013-01-17 03:22:00,26.0,5.0,-100.00,South,190,8.0,12.0,40,-99.99,,,-99.99,,2013-01-17 03:22:00,
2013-01-17 03:32:00,27.0,6.0,-100.00,SSW,205,7.0,9.0,40,-99.99,,,-99.99,,2013-01-17 03:32:00,
2013-01-17 03:42:00,28.0,6.0,-100.00,SW,235,3.0,7.0,37,-99.99,,,-99.99,,2013-01-17 03:42:00,
2013-01-17 03:52:00,27.0,5.0,-100.00,SW,235,7.0,9.0,38,-99.99,,,-99.99,,2013-01-17 03:52:00,
2013-01-17 04:02:00,28.0,6.0,-100.00,SW,230,12.0,14.0,39,-99.99,,,-99.99,,2013-01-17 04:02:00,
2013-01-17 04:11:00,29.0,6.0,-100.00,SW,225,15.0,16.0,38,-99.99,,,-99.99,,2013-01-17 04:11:00,
2013-01-17 04:22:00,29.0,7.0,-100.00,SW,220,14.0,15.0,37,-99.99,,,-99.99,,2013-01-17 04:22:00,
2013-01-17 04:32:00,28.0,6.0,-100.00,SW,220,15.0,16.0,38,-99.99,,,-99.99,,2013-01-17 04:32:00,
2013-01-17 04:42:00,29.0,7.0,-100.00,SW,220,14.0,16.0,38,-99.99,,,-99.99,,2013-01-17 04:42:00,
2013-01-17 04:52:00,29.0,7.0,-100.00,SW,220,14.0,15.0,38,-99.99,,,-99.99,,2013-01-17 04:52:00,
2013-01-17 05:03:00,28.0,7.0,-100.00,SW,215,15.0,16.0,39,-99.99,,,-99.99,,2013-01-17 05:03:00,
2013-01-17 05:12:00,28.0,7.0,-100.00,SW,220,14.0,16.0,39,-99.99,,,-99.99,,2013-01-17 05:12:00,
2013-01-17 05:22:00,28.0,7.0,-100.00,SW,225,11.0,12.0,39,-99.99,,,-99.99,,2013-01-17 05:22:00,
2013-01-17 05:32:00,31.0,8.0,-100.00,SW,220,6.0,11.0,37,-99.99,,,-99.99,,2013-01-17 05:32:00,
2013-01-17 05:42:00,30.0,7.0,-100.00,SW,220,6.0,9.0,36,-99.99,,,-99.99,,2013-01-17 05:42:00,
2013-01-17 05:52:00,29.0,6.0,-100.00,SW,220,4.0,6.0,35,-99.99,,,-99.99,,2013-01-17 05:52:00,
2013-01-17 06:02:00,30.0,6.0,-100.00,SSW,210,2.0,6.0,35,-99.99,,,-99.99,,2013-01-17 06:02:00,
2013-01-17 06:11:00,26.0,4.0,-100.00,South,190,4.0,5.0,37,-99.99,,,-99.99,,2013-01-17 06:11:00,
2013-01-17 06:22:00,26.0,4.0,-100.00,South,180,6.0,7.0,37,-99.99,,,-99.99,,2013-01-17 06:22:00,
2013-01-17 06:32:00,25.0,4.0,-100.00,South,170,6.0,9.0,39,-99.99,,,-99.99,,2013-01-17 06:32:00,
2013-01-17 06:42:00,25.0,4.0,-100.00,South,175,7.0,7.0,40,-99.99,,,-99.99,,2013-01-17 06:42:00,
2013-01-17 06:52:00,26.0,5.0,-100.00,South,180,7.0,10.0,39,-99.99,,,-99.99,,2013-01-17 06:52:00,
2013-01-17 07:02:00,27.0,5.0,-100.00,SSW,205,7.0,9.0,38,-99.99,,,-99.99,,2013-01-17 07:02:00,
2013-01-17 07:11:00,27.0,5.0,-100.00,SSE,155,3.0,8.0,38,-99.99,,,-99.99,,2013-01-17 07:11:00,
2013-01-17 07:22:00,27.0,4.0,-100.00,NW,320,6.0,8.0,37,-99.99,,,-99.99,,2013-01-17 07:22:00,
2013-01-17 07:32:00,28.0,5.0,-100.00,SSW,200,4.0,9.0,36,-99.99,,,-99.99,,2013-01-17 07:32:00,
2013-01-17 07:42:00,29.0,6.0,-100.00,SSW,200,6.0,7.0,36,-99.99,,,-99.99,,2013-01-17 07:42:00,
2013-01-17 07:52:00,26.0,4.0,-100.00,South,190,9.0,9.0,37,-99.99,,,-99.99,,2013-01-17 07:52:00,
2013-01-17 08:02:00,25.0,3.0,-100.00,South,185,11.0,11.0,38,-99.99,,,-99.99,,2013-01-17 08:02:00,
2013-01-17 08:11:00,24.0,3.0,-100.00,South,190,11.0,12.0,39,-99.99,,,-99.99,,2013-01-17 08:11:00,
2013-01-17 08:22:00,22.0,2.0,-100.00,South,190,12.0,12.0,40,-99.99,,,-99.99,,2013-01-17 08:22:00,
2013-01-17 08:32:00,22.0,2.0,-100.00,South,190,12.0,12.0,40,-99.99,,,-99.99,,2013-01-17 08:32:00,
2013-01-17 08:42:00,23.0,3.0,-100.00,SSW,200,12.0,12.0,40,-99.99,,,-99.99,,2013-01-17 08:42:00,
2013-01-17 08:52:00,25.0,4.0,-100.00,SSW,205,12.0,13.0,39,-99.99,,,-99.99,,2013-01-17 08:52:00,
2013-01-17 09:02:00,24.0,3.0,-100.00,SSW,195,12.0,12.0,39,-99.99,,,-99.99,,2013-01-17 09:02:00,
2013-01-17 09:11:00,26.0,4.0,-100.00,South,190,13.0,13.0,39,-99.99,,,-99.99,,2013-01-17 09:11:00,
2013-01-17 09:22:00,23.0,3.0,-100.00,South,190,12.0,14.0,40,-99.99,,,-99.99,,2013-01-17 09:22:00,
2013-01-17 09:32:00,23.0,2.0,-100.00,SSW,195,13.0,14.0,41,-99.99,,,-99.99,,2013-01-17 09:32:00,
2013-01-17 09:42:00,22.0,2.0,-100.00,SSW,195,11.0,14.0,41,-99.99,,,-99.99,,2013-01-17 09:42:00,
2013-01-17 09:52:00,26.0,4.0,-100.00,SSW,195,9.0,12.0,39,-99.99,,,-99.99,,2013-01-17 09:52:00,
2013-01-17 10:02:00,26.0,4.0,-100.00,SSW,200,9.0,10.0,38,-99.99,,,-99.99,,2013-01-17 10:02:00,
2013-01-17 10:11:00,25.0,4.0,-100.00,SSW,205,8.0,10.0,39,-99.99,,,-99.99,,2013-01-17 10:11:00,
2013-01-17 10:22:00,26.0,4.0,-100.00,SSW,195,6.0,9.0,37,-99.99,,,-99.99,,2013-01-17 10:22:00,
2013-01-17 10:32:00,25.0,4.0,-100.00,SSE,165,4.0,6.0,39,-99.99,,,-99.99,,2013-01-17 10:32:00,
2013-01-17 10:42:00,24.0,3.0,-100.00,SSW,210,6.0,6.0,39,-99.99,,,-99.99,,2013-01-17 10:42:00,
2013-01-17 10:52:00,27.0,4.0,-100.00,SSW,195,8.0,9.0,37,-99.99,,,-99.99,,2013-01-17 10:52:00,
2013-01-17 11:02:00,25.0,4.0,-100.00,SSW,200,6.0,9.0,38,-99.99,,,-99.99,,2013-01-17 11:02:00,
2013-01-17 11:11:00,25.0,3.0,-100.00,SW,215,3.0,7.0,39,-99.99,,,-99.99,,2013-01-17 11:11:00,
2013-01-17 11:22:00,24.0,2.0,-100.00,SSW,210,5.0,6.0,39,-99.99,,,-99.99,,2013-01-17 11:22:00,
2013-01-17 11:32:00,26.0,4.0,-100.00,SSW,195,6.0,6.0,38,-99.99,,,-99.99,,2013-01-17 11:32:00,
2013-01-17 11:42:00,24.0,2.0,-100.00,South,190,7.0,8.0,38,-99.99,,,-99.99,,2013-01-17 11:42:00,
2013-01-17 11:52:00,23.0,2.0,-100.00,SSW,195,10.0,12.0,39,-99.99,,,-99.99,,2013-01-17 11:52:00,
2013-01-17 12:02:00,24.0,3.0,-100.00,SSE,160,6.0,10.0,39,-99.99,,,-99.99,,2013-01-17 12:02:00,
2013-01-17 12:11:00,23.0,2.0,-100.00,SSE,150,7.0,8.0,39,-99.99,,,-99.99,,2013-01-17 12:11:00,
2013-01-17 12:22:00,21.0,1.0,-100.00,South,185,12.0,13.0,41,-99.99,,,-99.99,,2013-01-17 12:22:00,
2013-01-17 12:32:00,20.0,1.0,-100.00,South,185,12.0,14.0,42,-99.99,,,-99.99,,2013-01-17 12:32:00,
2013-01-17 12:42:00,21.0,1.0,-100.00,SSW,195,12.0,12.0,42,-99.99,,,-99.99,,2013-01-17 12:42:00,
2013-01-17 12:52:00,23.0,3.0,-100.00,SSW,200,14.0,15.0,40,-99.99,,,-99.99,,2013-01-17 12:52:00,
2013-01-17 13:02:00,22.0,2.0,-100.00,SSW,205,14.0,17.0,40,-99.99,,,-99.99,,2013-01-17 13:02:00,
2013-01-17 13:12:00,22.0,2.0,-100.00,SSW,205,14.0,15.0,41,-99.99,,,-99.99,,2013-01-17 13:12:00,
2013-01-17 13:22:00,24.0,3.0,-100.00,South,180,8.0,10.0,39,-99.99,,,-99.99,,2013-01-17 13:22:00,
2013-01-17 13:33:00,22.0,1.0,-100.00,South,185,12.0,14.0,40,-99.99,,,-99.99,,2013-01-17 13:33:00,
2013-01-17 13:42:00,21.0,2.0,-100.00,SSW,195,14.0,14.0,41,-99.99,,,-99.99,,2013-01-17 13:42:00,
2013-01-17 13:52:00,22.0,2.0,-100.00,South,185,11.0,14.0,41,-99.99,,,-99.99,,2013-01-17 13:52:00,
2013-01-17 14:02:00,22.0,2.0,-100.00,SSW,195,13.0,14.0,41,-99.99,,,-99.99,,2013-01-17 14:02:00,
2013-01-17 14:12:00,21.0,1.0,-100.00,South,190,13.0,14.0,41,-99.99,,,-99.99,,2013-01-17 14:12:00,
2013-01-17 14:22:00,20.0,1.0,-100.00,South,190,16.0,17.0,42,-99.99,,,-99.99,,2013-01-17 14:22:00,
2013-01-17 14:32:00,22.0,2.0,-100.00,SSW,195,18.0,19.0,41,-99.99,,,-99.99,,2013-01-17 14:32:00,
2013-01-17 14:42:00,24.0,3.0,-100.00,SSW,200,17.0,19.0,40,-99.99,,,-99.99,,2013-01-17 14:42:00,
2013-01-17 14:52:00,25.0,4.0,-100.00,SSW,195,15.0,17.0,39,-99.99,,,-99.99,,2013-01-17 14:52:00,
2013-01-17 15:02:00,25.0,4.0,-100.00,SSW,200,18.0,19.0,39,-99.99,,,-99.99,,2013-01-17 15:02:00,
2013-01-17 15:11:00,26.0,4.0,-100.00,SSW,195,16.0,19.0,38,-99.99,,,-99.99,,2013-01-17 15:11:00,
2013-01-17 15:22:00,25.0,3.0,-100.00,South,190,18.0,20.0,37,-99.99,,,-99.99,,2013-01-17 15:22:00,
2013-01-17 15:33:00,26.0,4.0,-100.00,South,185,16.0,20.0,37,-99.99,,,-99.99,,2013-01-17 15:33:00,
2013-01-17 15:42:00,28.0,5.0,-100.00,South,190,18.0,19.0,36,-99.99,,,-99.99,,2013-01-17 15:42:00,
2013-01-17 15:52:00,29.0,5.0,-100.00,SSW,195,17.0,19.0,36,-99.99,,,-99.99,,2013-01-17 15:52:00,
2013-01-17 16:02:00,29.0,6.0,-100.00,SSW,210,19.0,21.0,36,-99.99,,,-99.99,,2013-01-17 16:02:00,
2013-01-17 16:12:00,29.0,5.0,-100.00,SSW,205,18.0,21.0,36,-99.99,,,-99.99,,2013-01-17 16:12:00,
2013-01-17 16:22:00,29.0,6.0,-100.00,SSW,205,16.0,17.0,36,-99.99,,,-99.99,,2013-01-17 16:22:00,
2013-01-17 16:33:00,30.0,6.0,-100.00,SSW,195,9.0,16.0,36,-99.99,,,-99.99,,2013-01-17 16:33:00,
2013-01-17 16:42:00,31.0,6.0,-100.00,SSW,200,14.0,16.0,35,-99.99,,,-99.99,,2013-01-17 16:42:00,
2013-01-17 16:52:00,31.0,7.0,-100.00,South,185,6.0,13.0,35,-99.99,,,-99.99,,2013-01-17 16:52:00,
2013-01-17 17:02:00,33.0,7.0,-100.00,SSW,195,6.0,7.0,33,-99.99,,,-99.99,,2013-01-17 17:02:00,
2013-01-17 17:12:00,32.0,7.0,-100.00,SW,215,11.0,12.0,34,-99.99,,,-99.99,,2013-01-17 17:12:00,
2013-01-17 17:22:00,32.0,7.0,-100.00,SSW,205,11.0,12.0,34,-99.99,,,-99.99,,2013-01-17 17:22:00,
2013-01-17 17:32:00,32.0,8.0,-100.00,SSW,200,13.0,14.0,35,-99.99,,,-99.99,,2013-01-17 17:32:00,
2013-01-17 17:42:00,33.0,9.0,-100.00,SSW,200,8.0,12.0,35,-99.99,,,-99.99,,2013-01-17 17:42:00,
2013-01-17 17:53:00,35.0,9.0,-100.00,SSW,200,7.0,12.0,33,-99.99,,,-99.99,,2013-01-17 17:53:00,
2013-01-17 18:03:00,34.0,9.0,-100.00,SSW,195,12.0,12.0,33,-99.99,,,-99.99,,2013-01-17 18:03:00,
2013-01-17 18:12:00,34.0,9.0,-100.00,South,185,11.0,12.0,34,-99.99,,,-99.99,,2013-01-17 18:12:00,
2013-01-17 18:22:00,32.0,8.0,-100.00,South,170,9.0,11.0,35,-99.99,,,-99.99,,2013-01-17 18:22:00,
2013-01-17 18:33:00,30.0,7.0,-100.00,SE,145,10.0,12.0,37,-99.99,,,-99.99,,2013-01-17 18:33:00,
2013-01-17 18:43:00,32.0,8.0,-100.00,SSE,155,9.0,11.0,35,-99.99,,,-99.99,,2013-01-17 18:43:00,
2013-01-17 18:52:00,32.0,9.0,-100.00,SE,145,8.0,12.0,36,-99.99,,,-99.99,,2013-01-17 18:52:00,
2013-01-17 19:02:00,31.0,9.0,-100.00,SE,135,13.0,15.0,39,-99.99,,,-99.99,,2013-01-17 19:02:00,
2013-01-17 19:12:00,30.0,8.0,-100.00,SE,140,12.0,14.0,39,-99.99,,,-99.99,,2013-01-17 19:12:00,
2013-01-17 19:22:00,35.0,11.0,-100.00,South,185,7.0,11.0,36,-99.99,,,-99.99,,2013-01-17 19:22:00,
2013-01-17 19:32:00,35.0,9.0,-100.00,SSE,160,7.0,7.0,34,-99.99,,,-99.99,,2013-01-17 19:32:00,
2013-01-17 19:52:00,33.0,9.0,-100.00,SE,145,10.0,12.0,35,-99.99,,,-99.99,,2013-01-17 19:52:00,
2013-01-17 20:02:00,35.0,10.0,-100.00,SSE,155,10.0,12.0,35,-99.99,,,-99.99,,2013-01-17 20:02:00,
2013-01-17 20:12:00,35.0,11.0,-100.00,South,175,12.0,12.0,35,-99.99,,,-99.99,,2013-01-17 20:12:00,
2013-01-17 20:22:00,35.0,10.0,-100.00,South,175,11.0,12.0,35,-99.99,,,-99.99,,2013-01-17 20:22:00,
2013-01-17 20:33:00,35.0,10.0,-100.00,South,185,11.0,12.0,35,-99.99,,,-99.99,,2013-01-17 20:33:00,
2013-01-17 20:42:00,35.0,11.0,-100.00,South,185,11.0,12.0,37,-99.99,,,-99.99,,2013-01-17 20:42:00,
2013-01-17 20:53:00,35.0,11.0,-100.00,South,185,12.0,13.0,37,-99.99,,,-99.99,,2013-01-17 20:53:00,
2013-01-17 21:02:00,35.0,12.0,-100.00,SSW,195,12.0,12.0,37,-99.99,,,-99.99,,2013-01-17 21:02:00,
2013-01-17 21:12:00,35.0,12.0,-100.00,South,190,12.0,13.0,37,-99.99,,,-99.99,,2013-01-17 21:12:00,
2013-01-17 21:22:00,35.0,12.0,-100.00,SSE,160,9.0,11.0,37,-99.99,,,-99.99,,2013-01-17 21:22:00,
2013-01-17 21:33:00,35.0,12.0,-100.00,SSW,195,12.0,14.0,38,-99.99,,,-99.99,,2013-01-17 21:33:00,
2013-01-17 21:42:00,36.0,13.0,-100.00,South,190,9.0,12.0,38,-99.99,,,-99.99,,2013-01-17 21:42:00,
2013-01-17 21:52:00,36.0,12.0,-100.00,SSE,160,9.0,11.0,36,-99.99,,,-99.99,,2013-01-17 21:52:00,
2013-01-17 22:02:00,37.0,13.0,-100.00,South,170,9.0,10.0,36,-99.99,,,-99.99,,2013-01-17 22:02:00,
2013-01-17 22:11:00,36.0,12.0,-100.00,SSE,160,8.0,10.0,36,-99.99,,,-99.99,,2013-01-17 22:11:00,
2013-01-17 22:22:00,35.0,12.0,-100.00,South,170,9.0,11.0,37,-99.99,,,-99.99,,2013-01-17 22:22:00,
2013-01-17 22:32:00,36.0,13.0,-100.00,South,170,9.0,10.0,37,-99.99,,,-99.99,,2013-01-17 22:32:00,
2013-01-17 22:42:00,35.0,13.0,-100.00,South,170,9.0,11.0,39,-99.99,,,-99.99,,2013-01-17 22:42:00,
2013-01-17 22:52:00,33.0,12.0,-100.00,South,185,11.0,12.0,40,-99.99,,,-99.99,,2013-01-17 22:52:00,
2013-01-17 23:02:00,33.0,12.0,-100.00,SSW,195,10.0,11.0,41,-99.99,,,-99.99,,2013-01-17 23:02:00,
2013-01-17 23:11:00,34.0,12.0,-100.00,SSW,195,8.0,11.0,40,-99.99,,,-99.99,,2013-01-17 23:11:00,
2013-01-17 23:22:00,38.0,11.0,-100.00,SSW,200,9.0,11.0,32,-99.99,,,-99.99,,2013-01-17 23:22:00,
2013-01-17 23:32:00,38.0,11.0,-100.00,SSW,205,9.0,11.0,31,-99.99,,,-99.99,,2013-01-17 23:32:00,
2013-01-17 23:42:00,35.0,11.0,-100.00,SSE,160,7.0,11.0,35,-99.99,,,-99.99,,2013-01-17 23:42:00,
2013-01-17 23:52:00,36.0,10.0,-100.00,South,170,6.0,9.0,34,-99.99,,,-99.99,,2013-01-17 23:52:00,